sensor_id;sensor_type;location;lat;lon;timestamp;temperature;humidity
30150;DHT22;16962;48.646;9.026;2023-10-09T13:56:29;28.20;1.00
30150;DHT22;16962;48.646;9.026;2023-10-09T14:11:59;30.00;1.00
30150;DHT22;16962;48.646;9.026;2023-10-09T14:15:04;30.90;1.00
30150;DHT22;16962;48.646;9.026;2023-10-09T14:18:15;31.10;1.00
30150;DHT22;16962;48.646;9.026;2023-10-09T14:21:11;31.10;1.00
30150;DHT22;16962;48.646;9.026;2023-10-09T14:24:06;30.20;1.00
30150;DHT22;16962;48.646;9.026;2023-10-09T14:27:23;29.80;1.00
30150;DHT22;16962;48.646;9.026;2023-10-09T14:30:39;28.40;1.00
30150;DHT22;16962;48.646;9.026;2023-10-09T14:33:42;27.90;1.00
30150;DHT22;16962;48.646;9.026;2023-10-09T14:36:57;27.80;1.00
30150;DHT22;16962;48.646;9.026;2023-10-09T14:40:33;27.70;1.00
30150;DHT22;16962;48.646;9.026;2023-10-09T14:44:05;27.10;1.00
30150;DHT22;16962;48.646;9.026;2023-10-09T14:47:44;26.80;1.00
30150;DHT22;16962;48.646;9.026;2023-10-09T15:03:36;25.90;1.00
30150;DHT22;16962;48.646;9.026;2023-10-09T15:07:27;26.40;1.00
30150;DHT22;16962;48.646;9.026;2023-10-09T15:16:01;26.60;1.00
30150;DHT22;16962;48.646;9.026;2023-10-09T15:23:33;25.20;1.00
30150;DHT22;16962;48.646;9.026;2023-10-09T15:34:40;24.70;1.00
30150;DHT22;16962;48.646;9.026;2023-10-09T15:46:27;23.20;1.00
30150;DHT22;16962;48.646;9.026;2023-10-09T15:49:45;23.00;1.00
30150;DHT22;16962;48.646;9.026;2023-10-09T15:52:47;22.80;1.00
30150;DHT22;16962;48.646;9.026;2023-10-09T15:55:44;22.70;1.00
30150;DHT22;16962;48.646;9.026;2023-10-09T15:58:35;22.50;1.00
30150;DHT22;16962;48.646;9.026;2023-10-09T16:01:23;22.40;1.00
30150;DHT22;16962;48.646;9.026;2023-10-09T16:04:10;22.20;1.00
30150;DHT22;16962;48.646;9.026;2023-10-09T16:07:00;22.10;1.00
30150;DHT22;16962;48.646;9.026;2023-10-09T16:09:48;22.00;1.00
30150;DHT22;16962;48.646;9.026;2023-10-09T16:12:41;21.90;1.00
30150;DHT22;16962;48.646;9.026;2023-10-09T16:15:29;21.80;1.00
30150;DHT22;16962;48.646;9.026;2023-10-09T16:18:38;21.70;1.00
30150;DHT22;16962;48.646;9.026;2023-10-09T16:22:00;21.60;1.00
30150;DHT22;16962;48.646;9.026;2023-10-09T16:24:51;21.40;1.00
30150;DHT22;16962;48.646;9.026;2023-10-09T16:27:42;21.30;1.00
30150;DHT22;16962;48.646;9.026;2023-10-09T16:30:34;21.20;1.00
30150;DHT22;16962;48.646;9.026;2023-10-09T16:33:23;21.10;1.00
30150;DHT22;16962;48.646;9.026;2023-10-09T16:36:13;21.00;1.00
30150;DHT22;16962;48.646;9.026;2023-10-09T16:39:04;20.90;1.00
30150;DHT22;16962;48.646;9.026;2023-10-09T16:41:54;20.80;1.00
30150;DHT22;16962;48.646;9.026;2023-10-09T16:44:45;20.70;1.00
30150;DHT22;16962;48.646;9.026;2023-10-09T16:47:33;20.60;1.00
30150;DHT22;16962;48.646;9.026;2023-10-09T16:50:23;20.40;1.00
30150;DHT22;16962;48.646;9.026;2023-10-09T16:53:15;20.30;1.00
30150;DHT22;16962;48.646;9.026;2023-10-09T16:56:05;20.20;1.00
30150;DHT22;16962;48.646;9.026;2023-10-09T16:59:01;20.00;1.00
30150;DHT22;16962;48.646;9.026;2023-10-09T17:01:51;19.90;1.00
30150;DHT22;16962;48.646;9.026;2023-10-09T17:04:41;19.90;1.00
30150;DHT22;16962;48.646;9.026;2023-10-09T17:07:31;19.80;1.00
30150;DHT22;16962;48.646;9.026;2023-10-09T17:10:22;19.60;1.00
30150;DHT22;16962;48.646;9.026;2023-10-09T17:13:12;19.60;1.00
30150;DHT22;16962;48.646;9.026;2023-10-09T17:16:12;19.40;1.00
30150;DHT22;16962;48.646;9.026;2023-10-09T17:19:04;19.10;1.00
30150;DHT22;16962;48.646;9.026;2023-10-09T17:21:53;18.90;1.00
30150;DHT22;16962;48.646;9.026;2023-10-09T17:24:44;18.60;1.00
30150;DHT22;16962;48.646;9.026;2023-10-09T17:27:33;18.40;1.00
30150;DHT22;16962;48.646;9.026;2023-10-09T17:30:21;18.40;1.00
30150;DHT22;16962;48.646;9.026;2023-10-09T17:33:09;18.50;1.00
30150;DHT22;16962;48.646;9.026;2023-10-09T17:36:00;18.50;1.00
30150;DHT22;16962;48.646;9.026;2023-10-09T17:38:49;18.50;1.00
30150;DHT22;16962;48.646;9.026;2023-10-09T17:41:39;18.40;1.00
30150;DHT22;16962;48.646;9.026;2023-10-09T17:44:29;18.30;1.00
30150;DHT22;16962;48.646;9.026;2023-10-09T17:47:19;18.00;1.00
30150;DHT22;16962;48.646;9.026;2023-10-09T17:50:09;17.80;1.00
30150;DHT22;16962;48.646;9.026;2023-10-09T17:52:59;17.70;1.00
30150;DHT22;16962;48.646;9.026;2023-10-09T17:55:54;17.60;1.00
30150;DHT22;16962;48.646;9.026;2023-10-09T17:58:43;17.50;1.00
30150;DHT22;16962;48.646;9.026;2023-10-09T18:01:38;17.50;1.00
30150;DHT22;16962;48.646;9.026;2023-10-09T18:04:26;17.50;1.00
30150;DHT22;16962;48.646;9.026;2023-10-09T18:07:14;17.50;1.00
30150;DHT22;16962;48.646;9.026;2023-10-09T18:10:06;17.50;1.00
30150;DHT22;16962;48.646;9.026;2023-10-09T18:12:57;17.50;1.00
30150;DHT22;16962;48.646;9.026;2023-10-09T18:15:46;17.50;1.00
30150;DHT22;16962;48.646;9.026;2023-10-09T18:18:35;17.50;1.00
30150;DHT22;16962;48.646;9.026;2023-10-09T18:21:23;17.40;1.00
30150;DHT22;16962;48.646;9.026;2023-10-09T18:24:12;17.50;1.00
30150;DHT22;16962;48.646;9.026;2023-10-09T18:27:02;17.50;1.00
30150;DHT22;16962;48.646;9.026;2023-10-09T18:29:49;17.60;1.00
30150;DHT22;16962;48.646;9.026;2023-10-09T18:32:41;17.60;1.00
30150;DHT22;16962;48.646;9.026;2023-10-09T18:35:31;17.60;1.00
30150;DHT22;16962;48.646;9.026;2023-10-09T18:38:25;17.60;1.00
30150;DHT22;16962;48.646;9.026;2023-10-09T18:41:12;17.50;1.00
30150;DHT22;16962;48.646;9.026;2023-10-09T18:44:00;17.50;1.00
30150;DHT22;16962;48.646;9.026;2023-10-09T18:46:57;17.40;1.00
30150;DHT22;16962;48.646;9.026;2023-10-09T18:49:47;17.50;1.00
30150;DHT22;16962;48.646;9.026;2023-10-09T18:52:38;17.60;1.00
30150;DHT22;16962;48.646;9.026;2023-10-09T18:55:35;17.80;1.00
30150;DHT22;16962;48.646;9.026;2023-10-09T18:58:23;17.90;1.00
30150;DHT22;16962;48.646;9.026;2023-10-09T19:01:12;18.10;1.00
30150;DHT22;16962;48.646;9.026;2023-10-09T19:04:03;18.10;1.00
30150;DHT22;16962;48.646;9.026;2023-10-09T19:06:55;18.20;1.00
30150;DHT22;16962;48.646;9.026;2023-10-09T19:09:45;18.30;1.00
30150;DHT22;16962;48.646;9.026;2023-10-09T19:12:35;18.40;1.00
30150;DHT22;16962;48.646;9.026;2023-10-09T19:15:28;18.40;1.00
30150;DHT22;16962;48.646;9.026;2023-10-09T19:18:15;18.40;1.00
30150;DHT22;16962;48.646;9.026;2023-10-09T19:23:55;18.20;1.00
30150;DHT22;16962;48.646;9.026;2023-10-09T19:26:43;18.10;1.00
30150;DHT22;16962;48.646;9.026;2023-10-09T19:29:30;17.90;1.00
30150;DHT22;16962;48.646;9.026;2023-10-09T19:32:19;17.80;1.00
30150;DHT22;16962;48.646;9.026;2023-10-09T19:35:11;17.80;1.00
30150;DHT22;16962;48.646;9.026;2023-10-09T19:38:00;17.90;1.00
30150;DHT22;16962;48.646;9.026;2023-10-09T19:40:51;17.90;1.00
30150;DHT22;16962;48.646;9.026;2023-10-09T19:43:39;17.90;1.00
30150;DHT22;16962;48.646;9.026;2023-10-09T19:46:26;17.90;1.00
30150;DHT22;16962;48.646;9.026;2023-10-09T19:49:18;17.90;1.00
30150;DHT22;16962;48.646;9.026;2023-10-09T19:52:08;17.80;1.00
30150;DHT22;16962;48.646;9.026;2023-10-09T19:54:56;17.80;1.00
30150;DHT22;16962;48.646;9.026;2023-10-09T19:57:43;17.70;1.00
30150;DHT22;16962;48.646;9.026;2023-10-09T20:00:30;17.70;1.00
30150;DHT22;16962;48.646;9.026;2023-10-09T20:03:21;17.70;1.00
30150;DHT22;16962;48.646;9.026;2023-10-09T20:06:09;17.70;1.00
30150;DHT22;16962;48.646;9.026;2023-10-09T20:08:57;17.80;1.00
30150;DHT22;16962;48.646;9.026;2023-10-09T20:11:47;17.80;1.00
30150;DHT22;16962;48.646;9.026;2023-10-09T20:14:37;17.70;1.00
30150;DHT22;16962;48.646;9.026;2023-10-09T20:17:25;17.60;1.00
30150;DHT22;16962;48.646;9.026;2023-10-09T20:20:16;17.60;1.00
30150;DHT22;16962;48.646;9.026;2023-10-09T20:23:13;17.50;1.00
30150;DHT22;16962;48.646;9.026;2023-10-09T20:26:04;17.40;1.00
30150;DHT22;16962;48.646;9.026;2023-10-09T20:28:55;17.30;1.00
30150;DHT22;16962;48.646;9.026;2023-10-09T20:31:45;17.10;1.00
30150;DHT22;16962;48.646;9.026;2023-10-09T20:34:34;16.90;1.00
30150;DHT22;16962;48.646;9.026;2023-10-09T20:37:24;16.70;1.00
30150;DHT22;16962;48.646;9.026;2023-10-09T20:40:14;16.50;1.00
30150;DHT22;16962;48.646;9.026;2023-10-09T20:43:09;16.30;1.00
30150;DHT22;16962;48.646;9.026;2023-10-09T20:45:57;16.00;1.00
30150;DHT22;16962;48.646;9.026;2023-10-09T20:48:49;15.90;5.90
30150;DHT22;16962;48.646;9.026;2023-10-09T20:51:36;15.70;19.60
30150;DHT22;16962;48.646;9.026;2023-10-09T20:54:43;15.70;28.30
30150;DHT22;16962;48.646;9.026;2023-10-09T20:57:32;15.80;29.30
30150;DHT22;16962;48.646;9.026;2023-10-09T21:00:20;15.80;29.40
30150;DHT22;16962;48.646;9.026;2023-10-09T21:03:10;15.70;34.60
30150;DHT22;16962;48.646;9.026;2023-10-09T21:06:01;15.60;44.60
30150;DHT22;16962;48.646;9.026;2023-10-09T21:08:51;15.50;52.20
30150;DHT22;16962;48.646;9.026;2023-10-09T21:11:38;15.50;65.80
30150;DHT22;16962;48.646;9.026;2023-10-09T21:14:25;15.50;81.60
30150;DHT22;16962;48.646;9.026;2023-10-09T21:17:17;15.40;90.70
30150;DHT22;16962;48.646;9.026;2023-10-09T21:20:09;15.40;98.20
30150;DHT22;16962;48.646;9.026;2023-10-09T21:22:57;15.50;97.10
30150;DHT22;16962;48.646;9.026;2023-10-09T21:25:49;15.50;99.40
30150;DHT22;16962;48.646;9.026;2023-10-09T21:28:39;15.50;99.90
30150;DHT22;16962;48.646;9.026;2023-10-09T21:31:27;15.50;99.90
30150;DHT22;16962;48.646;9.026;2023-10-09T21:34:14;15.40;99.90
30150;DHT22;16962;48.646;9.026;2023-10-09T21:37:02;15.40;99.90
30150;DHT22;16962;48.646;9.026;2023-10-09T21:39:55;15.30;99.90
30150;DHT22;16962;48.646;9.026;2023-10-09T21:42:46;15.30;99.90
30150;DHT22;16962;48.646;9.026;2023-10-09T21:45:43;15.20;99.90
30150;DHT22;16962;48.646;9.026;2023-10-09T21:48:32;15.00;99.90
30150;DHT22;16962;48.646;9.026;2023-10-09T21:51:20;15.00;99.90
30150;DHT22;16962;48.646;9.026;2023-10-09T21:54:12;14.90;99.90
30150;DHT22;16962;48.646;9.026;2023-10-09T21:57:00;14.90;99.90
30150;DHT22;16962;48.646;9.026;2023-10-09T21:59:49;14.80;99.90
30150;DHT22;16962;48.646;9.026;2023-10-09T22:02:37;14.80;99.90
30150;DHT22;16962;48.646;9.026;2023-10-09T22:05:25;14.80;99.90
30150;DHT22;16962;48.646;9.026;2023-10-09T22:08:16;14.80;99.90
30150;DHT22;16962;48.646;9.026;2023-10-09T22:11:06;14.80;99.90
30150;DHT22;16962;48.646;9.026;2023-10-09T22:13:55;14.80;99.90
30150;DHT22;16962;48.646;9.026;2023-10-09T22:16:45;14.70;99.90
30150;DHT22;16962;48.646;9.026;2023-10-09T22:19:32;14.70;99.90
30150;DHT22;16962;48.646;9.026;2023-10-09T22:22:26;14.90;99.90
30150;DHT22;16962;48.646;9.026;2023-10-09T22:25:14;15.00;99.90
30150;DHT22;16962;48.646;9.026;2023-10-09T22:28:01;15.10;99.90
30150;DHT22;16962;48.646;9.026;2023-10-09T22:31:01;15.10;99.90
30150;DHT22;16962;48.646;9.026;2023-10-09T22:33:53;15.10;99.90
30150;DHT22;16962;48.646;9.026;2023-10-09T22:36:41;15.20;99.90
30150;DHT22;16962;48.646;9.026;2023-10-09T22:39:45;15.10;99.90
30150;DHT22;16962;48.646;9.026;2023-10-09T22:42:37;15.00;99.90
30150;DHT22;16962;48.646;9.026;2023-10-09T22:45:27;14.90;99.90
30150;DHT22;16962;48.646;9.026;2023-10-09T22:48:21;14.80;99.90
30150;DHT22;16962;48.646;9.026;2023-10-09T22:51:18;14.70;99.90
30150;DHT22;16962;48.646;9.026;2023-10-09T22:54:12;14.60;99.90
30150;DHT22;16962;48.646;9.026;2023-10-09T22:56:59;14.60;99.90
30150;DHT22;16962;48.646;9.026;2023-10-09T22:59:50;14.70;99.90
30150;DHT22;16962;48.646;9.026;2023-10-09T23:02:46;14.80;99.90
30150;DHT22;16962;48.646;9.026;2023-10-09T23:05:46;14.80;99.90
30150;DHT22;16962;48.646;9.026;2023-10-09T23:08:34;14.80;99.90
30150;DHT22;16962;48.646;9.026;2023-10-09T23:11:21;14.90;99.90
30150;DHT22;16962;48.646;9.026;2023-10-09T23:14:12;14.90;99.90
30150;DHT22;16962;48.646;9.026;2023-10-09T23:17:05;15.00;99.90
30150;DHT22;16962;48.646;9.026;2023-10-09T23:19:56;15.00;99.90
30150;DHT22;16962;48.646;9.026;2023-10-09T23:22:48;15.00;99.90
30150;DHT22;16962;48.646;9.026;2023-10-09T23:25:39;14.90;99.90
30150;DHT22;16962;48.646;9.026;2023-10-09T23:28:39;14.80;99.90
30150;DHT22;16962;48.646;9.026;2023-10-09T23:31:38;14.80;99.90
30150;DHT22;16962;48.646;9.026;2023-10-09T23:34:34;14.70;99.90
30150;DHT22;16962;48.646;9.026;2023-10-09T23:37:22;14.60;99.90
30150;DHT22;16962;48.646;9.026;2023-10-09T23:40:44;14.50;99.90
30150;DHT22;16962;48.646;9.026;2023-10-09T23:43:36;14.30;99.90
30150;DHT22;16962;48.646;9.026;2023-10-09T23:46:36;14.30;99.90
30150;DHT22;16962;48.646;9.026;2023-10-09T23:49:28;14.10;99.90
30150;DHT22;16962;48.646;9.026;2023-10-09T23:52:19;13.90;99.90
30150;DHT22;16962;48.646;9.026;2023-10-09T23:55:13;13.80;1.00
30150;DHT22;16962;48.646;9.026;2023-10-09T23:58:01;13.60;1.00
